createdAt,value
2023-02-15T00:01:10.236Z,78.41
2023-02-15T00:04:14.956Z,78.43
2023-02-15T00:07:18.019Z,78.16
2023-02-15T00:10:19.776Z,78.17
2023-02-15T00:13:21.413Z,78.22
2023-02-15T00:16:23.195Z,78.35
2023-02-15T00:19:24.909Z,78.29
2023-02-15T00:22:26.601Z,78.19
2023-02-15T00:25:28.201Z,78.26
2023-02-15T00:28:31.030Z,78.29
2023-02-15T00:31:33.595Z,78.58
2023-02-15T00:34:35.279Z,78.46
2023-02-15T00:37:36.898Z,78.49
2023-02-15T00:40:38.494Z,78.42
2023-02-15T00:43:43.140Z,78.43
2023-02-15T00:46:45.065Z,78.34
2023-02-15T00:49:46.681Z,78.40
2023-02-15T00:52:48.246Z,78.31
2023-02-15T00:55:50.379Z,78.31
2023-02-15T00:58:51.943Z,78.39
2023-02-15T01:01:53.584Z,78.31
2023-02-15T01:04:55.167Z,78.41
2023-02-15T01:07:57.770Z,78.47
2023-02-15T01:11:07.250Z,78.36
2023-02-15T01:14:08.875Z,78.38
2023-02-15T01:17:10.570Z,78.22
2023-02-15T01:20:12.951Z,78.19
2023-02-15T01:23:14.865Z,78.39
2023-02-15T01:26:17.840Z,78.29
2023-02-15T01:29:19.576Z,78.29
2023-02-15T01:32:21.107Z,78.36
2023-02-15T01:35:22.868Z,78.33
2023-02-15T01:38:24.510Z,78.34
2023-02-15T01:41:26.124Z,78.21
2023-02-15T01:44:52.860Z,78.37
2023-02-15T01:48:19.260Z,78.30
2023-02-15T01:51:24.494Z,78.46
2023-02-15T01:54:30.894Z,78.23
2023-02-15T01:57:32.636Z,78.31
2023-02-15T02:00:34.547Z,78.22
2023-02-15T02:03:42.241Z,78.26
2023-02-15T02:06:45.722Z,78.27
2023-02-15T02:09:48.565Z,78.42
2023-02-15T02:12:52.750Z,78.30
2023-02-15T02:16:23.939Z,78.27
2023-02-15T02:19:54.305Z,78.09
2023-02-15T02:22:59.008Z,78.20
2023-02-15T02:26:37.031Z,78.27
2023-02-15T02:30:07.535Z,78.13
2023-02-15T02:33:18.781Z,78.11
2023-02-15T02:36:50.880Z,78.04
2023-02-15T02:40:37.769Z,78.20
2023-02-15T02:43:48.967Z,78.16
2023-02-15T02:47:19.455Z,78.24
2023-02-15T02:50:29.878Z,78.29
2023-02-15T02:53:32.411Z,78.27
2023-02-15T02:56:42.911Z,78.20
2023-02-15T02:59:45.957Z,78.39
2023-02-15T03:02:50.730Z,78.23
2023-02-15T03:05:55.614Z,78.17
2023-02-15T03:09:09.586Z,78.21
2023-02-15T03:12:23.401Z,78.35
2023-02-15T03:15:31.664Z,78.36
2023-02-15T03:18:37.661Z,78.27
2023-02-15T03:21:49.643Z,78.17
2023-02-15T03:25:06.421Z,78.38
2023-02-15T03:28:10.875Z,78.28
2023-02-15T03:31:14.386Z,78.16
2023-02-15T03:34:16.762Z,78.27
2023-02-15T03:37:44.135Z,78.24
2023-02-15T03:40:46.817Z,78.38
2023-02-15T03:44:00.684Z,78.23
2023-02-15T03:47:09.630Z,78.23
2023-02-15T03:50:16.969Z,78.39
2023-02-15T03:53:22.349Z,78.21
2023-02-15T03:56:27.521Z,78.18
2023-02-15T03:59:29.123Z,78.07
2023-02-15T04:02:39.664Z,78.23
2023-02-15T04:05:42.675Z,78.06
2023-02-15T04:08:44.384Z,78.10
2023-02-15T04:11:45.944Z,78.27
2023-02-15T04:14:47.594Z,78.45
2023-02-15T04:17:49.212Z,78.51
2023-02-15T04:20:51.434Z,78.64
2023-02-15T04:23:52.957Z,78.45
2023-02-15T04:26:55.212Z,78.42
2023-02-15T04:29:56.788Z,78.54
2023-02-15T04:32:58.435Z,78.43
2023-02-15T04:36:00.791Z,78.53
2023-02-15T04:39:02.698Z,78.58
2023-02-15T04:42:04.456Z,78.65
2023-02-15T04:45:06.344Z,78.69
2023-02-15T04:48:07.968Z,78.53
2023-02-15T04:51:09.656Z,78.73
2023-02-15T04:54:11.267Z,78.84
2023-02-15T04:57:13.616Z,78.67
2023-02-15T05:00:15.613Z,78.78
2023-02-15T05:03:19.549Z,78.82
2023-02-15T05:06:21.548Z,78.69
2023-02-15T05:09:23.252Z,77.98
2023-02-15T05:12:24.807Z,77.74
2023-02-15T05:15:26.691Z,78.70
2023-02-15T05:18:28.368Z,78.77
2023-02-15T05:21:30.044Z,78.48
2023-02-15T05:24:31.746Z,78.41
2023-02-15T05:27:33.359Z,78.50
2023-02-15T05:30:35.143Z,78.54
2023-02-15T05:33:37.058Z,78.27
2023-02-15T05:36:38.607Z,78.34
2023-02-15T05:39:40.314Z,78.79
2023-02-15T05:42:42.019Z,78.61
2023-02-15T05:45:51.729Z,78.68
2023-02-15T05:48:53.362Z,79.32
2023-02-15T05:51:54.982Z,79.11
2023-02-15T05:54:56.516Z,79.11
2023-02-15T05:57:58.260Z,78.85
2023-02-15T06:00:59.843Z,78.94
2023-02-15T06:04:01.471Z,79.25
2023-02-15T06:07:03.139Z,78.76
2023-02-15T06:10:05.358Z,78.88
2023-02-15T06:13:07.464Z,79.24
2023-02-15T06:16:09.064Z,79.20
2023-02-15T06:19:10.551Z,79.38
2023-02-15T06:22:12.148Z,79.62
2023-02-15T06:25:15.038Z,79.28
2023-02-15T06:28:16.739Z,79.42
2023-02-15T06:31:18.419Z,79.37
2023-02-15T06:34:20.039Z,79.42
2023-02-15T06:37:21.903Z,79.27
2023-02-15T06:40:23.601Z,79.22
2023-02-15T06:43:25.248Z,79.29
2023-02-15T06:46:26.970Z,79.07
2023-02-15T06:49:28.504Z,79.07
2023-02-15T06:52:30.301Z,79.07
2023-02-15T06:55:31.900Z,79.09
2023-02-15T06:58:34.877Z,79.38
2023-02-15T07:01:36.556Z,79.02
2023-02-15T07:04:38.234Z,79.15
2023-02-15T07:07:39.949Z,79.25
2023-02-15T07:10:45.226Z,79.07
2023-02-15T07:13:47.843Z,79.00
2023-02-15T07:16:49.423Z,78.92
2023-02-15T07:19:51.039Z,78.94
2023-02-15T07:22:52.736Z,78.89
2023-02-15T07:26:01.531Z,78.87
2023-02-15T07:29:03.519Z,78.94
2023-02-15T07:32:05.032Z,78.91
2023-02-15T07:35:06.681Z,79.06
2023-02-15T07:38:08.271Z,78.97
2023-02-15T07:41:12.448Z,78.90
2023-02-15T07:44:15.377Z,78.77
2023-02-15T07:47:17.500Z,78.89
2023-02-15T07:50:19.207Z,78.76
2023-02-15T07:53:20.729Z,78.86
2023-02-15T07:56:22.370Z,78.64
2023-02-15T07:59:24.069Z,78.84
2023-02-15T08:02:26.261Z,78.81
2023-02-15T08:05:29.708Z,78.80
2023-02-15T08:08:31.352Z,78.99
2023-02-15T08:11:34.034Z,78.73
2023-02-15T08:14:35.865Z,78.33
2023-02-15T08:17:38.057Z,78.13
2023-02-15T08:20:39.829Z,78.11
2023-02-15T08:23:41.336Z,78.23
2023-02-15T08:26:43.898Z,78.41
2023-02-15T08:29:45.390Z,78.43
2023-02-15T08:32:47.174Z,78.30
2023-02-15T08:35:48.580Z,77.75
2023-02-15T08:38:50.265Z,77.16
2023-02-15T08:41:52.112Z,77.53
2023-02-15T08:44:53.969Z,77.61
2023-02-15T08:47:55.713Z,77.47
2023-02-15T08:50:57.298Z,77.70
2023-02-15T08:54:01.824Z,77.57
2023-02-15T08:57:03.595Z,77.83
2023-02-15T09:00:05.764Z,77.06
2023-02-15T09:03:07.628Z,76.88
2023-02-15T09:06:09.131Z,76.53
2023-02-15T09:09:12.000Z,76.32
2023-02-15T09:12:13.758Z,76.41
2023-02-15T09:15:15.652Z,76.72
2023-02-15T09:18:17.155Z,75.44
2023-02-15T09:21:19.798Z,75.75
2023-02-15T09:24:21.550Z,76.28
2023-02-15T09:27:23.256Z,72.47
2023-02-15T09:30:24.885Z,72.35
2023-02-15T09:33:26.716Z,69.49
2023-02-15T09:36:37.832Z,72.11
2023-02-15T09:39:42.484Z,73.61
2023-02-15T09:42:53.323Z,73.27
2023-02-15T09:46:18.837Z,73.00
2023-02-15T09:50:04.282Z,71.34
2023-02-15T09:53:37.178Z,69.63
2023-02-15T09:56:46.573Z,68.71
2023-02-15T10:00:07.191Z,66.73
2023-02-15T10:03:14.316Z,64.73
2023-02-15T10:06:30.983Z,67.09
2023-02-15T10:09:32.726Z,68.27
2023-02-15T10:12:42.311Z,68.42
2023-02-15T10:15:50.016Z,68.71
2023-02-15T10:19:28.622Z,66.95
2023-02-15T10:22:42.721Z,60.56
2023-02-15T10:25:51.339Z,60.02
2023-02-15T10:29:10.427Z,60.83
2023-02-15T10:32:22.119Z,60.93
2023-02-15T10:35:55.092Z,63.71
2023-02-15T10:39:20.350Z,64.25
2023-02-15T10:42:31.811Z,65.39
2023-02-15T10:45:36.350Z,59.38
2023-02-15T10:49:00.889Z,61.39
2023-02-15T10:52:24.610Z,65.27
2023-02-15T10:55:35.403Z,61.92
2023-02-15T10:59:07.703Z,63.26
2023-02-15T11:02:48.961Z,63.06
2023-02-15T11:06:06.815Z,60.62
2023-02-15T11:09:13.795Z,61.81
2023-02-15T11:12:20.292Z,61.85
2023-02-15T11:15:50.552Z,60.32
2023-02-15T11:19:02.006Z,60.10
2023-02-15T11:22:05.744Z,61.86
2023-02-15T11:25:33.697Z,63.41
2023-02-15T11:28:40.247Z,64.22
2023-02-15T11:31:47.864Z,63.82
2023-02-15T11:35:12.419Z,60.99
2023-02-15T11:38:18.860Z,59.01
2023-02-15T11:41:28.513Z,59.24
2023-02-15T11:44:36.079Z,58.36
2023-02-15T11:47:37.681Z,61.05
2023-02-15T11:50:40.156Z,59.66
2023-02-15T11:53:41.815Z,60.58
2023-02-15T11:56:43.445Z,61.66
2023-02-15T11:59:52.542Z,62.12
2023-02-15T12:02:55.880Z,61.97
2023-02-15T12:06:02.686Z,61.91
2023-02-15T12:09:10.108Z,59.92
2023-02-15T12:12:27.670Z,61.70
2023-02-15T12:15:32.934Z,62.27
2023-02-15T12:18:40.118Z,62.75
2023-02-15T12:21:42.637Z,63.17
2023-02-15T12:24:48.358Z,63.49
2023-02-15T12:27:50.729Z,63.81
2023-02-15T12:30:54.682Z,64.32
2023-02-15T12:33:58.006Z,65.08
2023-02-15T12:37:03.162Z,64.79
2023-02-15T12:40:24.397Z,64.89
2023-02-15T12:43:30.949Z,65.33
2023-02-15T12:46:37.889Z,64.67
2023-02-15T12:49:40.054Z,64.85
2023-02-15T12:52:41.755Z,65.42
2023-02-15T12:55:55.387Z,65.94
2023-02-15T12:59:06.391Z,65.19
2023-02-15T13:02:17.626Z,65.47
2023-02-15T13:05:35.253Z,65.86
2023-02-15T13:08:46.307Z,66.10
2023-02-15T13:11:48.033Z,65.94
2023-02-15T13:14:51.497Z,66.15
2023-02-15T13:17:53.359Z,66.02
2023-02-15T13:20:54.992Z,65.31
2023-02-15T13:24:01.498Z,65.86
2023-02-15T13:27:15.068Z,65.78
2023-02-15T13:30:27.659Z,65.99
2023-02-15T13:33:36.194Z,66.25
2023-02-15T13:36:37.747Z,66.17
2023-02-15T13:39:46.904Z,66.18
2023-02-15T13:43:11.470Z,65.93
2023-02-15T13:46:22.723Z,66.16
2023-02-15T13:49:33.284Z,66.47
2023-02-15T13:52:43.280Z,66.23
2023-02-15T13:56:15.146Z,65.96
2023-02-15T13:59:18.997Z,66.09
2023-02-15T14:02:50.052Z,65.92
2023-02-15T14:06:10.754Z,65.75
2023-02-15T14:09:21.639Z,65.83
2023-02-15T14:12:41.657Z,66.02
2023-02-15T14:15:54.283Z,66.04
2023-02-15T14:19:04.700Z,66.21
2023-02-15T14:22:18.518Z,66.37
2023-02-15T14:25:36.226Z,66.47
2023-02-15T14:28:45.088Z,66.47
2023-02-15T14:31:50.051Z,66.46
2023-02-15T14:34:54.658Z,66.50
2023-02-15T14:38:02.714Z,66.79
2023-02-15T14:41:33.670Z,66.88
2023-02-15T14:44:40.987Z,66.92
2023-02-15T14:47:47.436Z,67.08
2023-02-15T14:50:49.280Z,67.12
2023-02-15T14:53:50.917Z,67.17
2023-02-15T14:57:01.604Z,67.34
2023-02-15T15:00:04.976Z,67.30
2023-02-15T15:03:21.318Z,67.41
2023-02-15T15:06:30.842Z,67.56
2023-02-15T15:09:35.130Z,67.54
2023-02-15T15:12:39.263Z,67.54
2023-02-15T15:15:47.894Z,67.62
2023-02-15T15:18:49.826Z,67.61
2023-02-15T15:21:51.754Z,67.67
2023-02-15T15:25:05.703Z,67.61
2023-02-15T15:28:07.554Z,67.74
2023-02-15T15:31:15.358Z,67.81
2023-02-15T15:34:29.502Z,67.81
2023-02-15T15:37:53.095Z,67.73
2023-02-15T15:41:19.916Z,67.86
2023-02-15T15:44:55.857Z,68.24
2023-02-15T15:48:26.784Z,68.25
2023-02-15T15:51:32.262Z,68.24
2023-02-15T15:54:33.921Z,68.51
2023-02-15T15:57:41.094Z,68.60
2023-02-15T16:00:49.641Z,68.74
2023-02-15T16:03:53.220Z,68.74
2023-02-15T16:06:54.945Z,68.68
2023-02-15T16:09:59.592Z,68.74
2023-02-15T16:13:02.046Z,68.98
2023-02-15T16:16:04.269Z,68.97
2023-02-15T16:19:06.434Z,69.13
2023-02-15T16:22:12.092Z,69.34
2023-02-15T16:25:31.671Z,69.40
2023-02-15T16:28:33.508Z,69.72
2023-02-15T16:31:35.243Z,69.74
2023-02-15T16:34:36.935Z,69.96
2023-02-15T16:37:38.499Z,70.12
2023-02-15T16:40:47.882Z,70.27
2023-02-15T16:43:50.839Z,70.33
2023-02-15T16:46:53.380Z,70.30
2023-02-15T16:49:57.439Z,70.59
2023-02-15T16:52:59.370Z,70.51
2023-02-15T16:56:03.903Z,70.82
2023-02-15T16:59:05.533Z,70.82
2023-02-15T17:02:11.616Z,70.99
2023-02-15T17:05:13.108Z,70.99
2023-02-15T17:08:20.716Z,71.15
2023-02-15T17:11:33.959Z,71.31
2023-02-15T17:14:38.998Z,71.40
2023-02-15T17:17:40.548Z,71.39
2023-02-15T17:20:43.456Z,71.62
2023-02-15T17:23:47.610Z,71.66
2023-02-15T17:26:57.001Z,71.77
2023-02-15T17:30:04.583Z,71.63
2023-02-15T17:33:40.403Z,71.51
2023-02-15T17:36:58.415Z,70.95
2023-02-15T17:40:02.027Z,70.53
2023-02-15T17:43:04.134Z,70.79
2023-02-15T17:46:06.091Z,70.94
2023-02-15T17:49:07.680Z,71.21
2023-02-15T17:52:14.183Z,71.27
2023-02-15T17:55:18.791Z,71.26
2023-02-15T17:58:21.192Z,71.41
2023-02-15T18:01:22.997Z,71.51
2023-02-15T18:04:24.501Z,71.80
2023-02-15T18:07:26.357Z,72.01
2023-02-15T18:10:29.201Z,72.07
2023-02-15T18:13:30.654Z,72.07
2023-02-15T18:16:38.209Z,72.27
2023-02-15T18:19:41.563Z,72.52
2023-02-15T18:22:43.203Z,72.55
2023-02-15T18:25:44.797Z,73.12
2023-02-15T18:28:46.408Z,72.77
2023-02-15T18:31:51.790Z,73.00
2023-02-15T18:34:55.945Z,72.70
2023-02-15T18:37:58.764Z,72.89
2023-02-15T18:41:02.556Z,72.90
2023-02-15T18:44:12.300Z,72.87
2023-02-15T18:47:14.068Z,72.92
2023-02-15T18:50:17.809Z,72.80
2023-02-15T18:53:20.965Z,72.75
2023-02-15T18:56:23.049Z,72.54
2023-02-15T18:59:26.251Z,72.84
2023-02-15T19:02:28.012Z,73.59
2023-02-15T19:05:30.058Z,73.50
2023-02-15T19:08:31.767Z,73.26
2023-02-15T19:11:33.418Z,73.21
2023-02-15T19:14:35.039Z,73.82
2023-02-15T19:17:36.757Z,73.67
2023-02-15T19:20:39.185Z,73.87
2023-02-15T19:23:40.798Z,73.88
2023-02-15T19:26:46.001Z,74.01
2023-02-15T19:29:48.453Z,73.96
2023-02-15T19:32:50.191Z,74.04
2023-02-15T19:35:53.722Z,73.93
2023-02-15T19:38:55.563Z,74.73
2023-02-15T19:41:57.094Z,75.14
2023-02-15T19:44:58.630Z,74.04
2023-02-15T19:48:01.250Z,73.43
2023-02-15T19:51:04.198Z,73.79
2023-02-15T19:54:24.945Z,74.04
2023-02-15T19:57:26.529Z,74.06
2023-02-15T20:00:31.371Z,74.36
2023-02-15T20:03:33.100Z,74.43
2023-02-15T20:06:34.576Z,74.35
2023-02-15T20:09:36.271Z,74.57
2023-02-15T20:12:37.901Z,74.28
2023-02-15T20:15:39.512Z,74.62
2023-02-15T20:18:41.255Z,74.65
2023-02-15T20:21:45.049Z,74.70
2023-02-15T20:24:46.640Z,74.72
2023-02-15T20:27:48.721Z,74.63
2023-02-15T20:30:51.120Z,74.73
2023-02-15T20:33:52.721Z,75.08
2023-02-15T20:36:54.473Z,75.48
2023-02-15T20:39:56.217Z,76.04
2023-02-15T20:42:57.758Z,76.44
2023-02-15T20:45:59.617Z,76.85
2023-02-15T20:49:01.204Z,75.65
2023-02-15T20:52:03.995Z,75.77
2023-02-15T20:55:22.114Z,75.78
2023-02-15T20:58:26.343Z,75.15
2023-02-15T21:01:27.970Z,75.13
2023-02-15T21:04:31.651Z,75.30
2023-02-15T21:07:36.520Z,75.18
2023-02-15T21:10:38.668Z,75.40
2023-02-15T21:13:40.389Z,75.75
2023-02-15T21:16:41.858Z,75.72
2023-02-15T21:19:43.698Z,76.01
2023-02-15T21:22:45.204Z,75.94
2023-02-15T21:25:47.225Z,75.78
2023-02-15T21:28:49.691Z,75.74
2023-02-15T21:31:51.652Z,75.68
2023-02-15T21:34:53.331Z,76.15
2023-02-15T21:37:55.493Z,76.31
2023-02-15T21:40:57.600Z,76.24
2023-02-15T21:43:59.148Z,75.95
2023-02-15T21:47:00.859Z,76.29
2023-02-15T21:50:02.644Z,76.20
2023-02-15T21:53:05.308Z,75.96
2023-02-15T21:56:10.983Z,76.82
2023-02-15T21:59:13.693Z,76.58
2023-02-15T22:02:42.685Z,76.68
2023-02-15T22:05:44.295Z,76.47
2023-02-15T22:08:45.968Z,76.66
2023-02-15T22:11:49.090Z,76.21
2023-02-15T22:14:52.931Z,75.99
2023-02-15T22:17:54.547Z,76.33
2023-02-15T22:20:56.493Z,76.51
2023-02-15T22:23:57.976Z,76.05
2023-02-15T22:27:00.284Z,76.33
2023-02-15T22:30:02.077Z,76.45
2023-02-15T22:33:03.763Z,76.19
2023-02-15T22:36:05.700Z,76.39
2023-02-15T22:39:07.327Z,76.30
2023-02-15T22:42:24.161Z,76.20
2023-02-15T22:45:26.261Z,76.42
2023-02-15T22:48:27.913Z,76.33
2023-02-15T22:51:29.958Z,76.46
2023-02-15T22:54:31.488Z,75.95
2023-02-15T22:57:33.117Z,76.62
2023-02-15T23:00:39.834Z,76.27
2023-02-15T23:03:41.499Z,76.27
2023-02-15T23:06:43.066Z,76.58
2023-02-15T23:09:45.479Z,76.48
2023-02-15T23:12:59.104Z,76.06
2023-02-15T23:16:03.336Z,76.09
2023-02-15T23:19:06.177Z,76.41
2023-02-15T23:22:14.324Z,76.59
2023-02-15T23:25:16.012Z,76.65
2023-02-15T23:28:33.230Z,77.05
2023-02-15T23:31:37.083Z,76.67
2023-02-15T23:34:39.336Z,76.74
2023-02-15T23:37:41.022Z,76.33
2023-02-15T23:40:42.688Z,76.78
2023-02-15T23:43:47.972Z,77.13
2023-02-15T23:46:50.080Z,76.70
2023-02-15T23:49:51.659Z,76.22
2023-02-15T23:52:54.222Z,76.47
2023-02-15T23:55:56.363Z,76.21
2023-02-15T23:58:58.063Z,76.27
